Hauptseite
METAR-TAF:

METAR-TAF

Flughäfen :

Flughafen Basel-Mülhausen

Basel-Mülhausen, Frankreich

Breite: 47-36N, Länge: 007-31E, Höhe: 270 m

Beobachtung

Neuester Wetterbericht von vor 21 Minuten, um 02:00 UTC
Wind 3 kt aus West
Temperatur 6°C
Luftfeuchtigkeit 100%
Luftdruck 1026 hPa
Sichtweite 10 km oder mehr
keine Wolken unter 1500 m und keine Kumulonimbus oder Gewitterwolken

METAR: LFSB 230200Z AUTO 26003KT CAVOK 06/06 Q1026 NOSIG

Zeit: 04:21 (02:21 UTC)

Prognose

Neuester Wetterbericht von vor 3 Stunden und 21 Minuten, um 23:00 UTC
Gültige Prognose vom 23 um 00 UTC bis 23 um 24 UTC
Wind 10 kt aus Nord
Sichtweite 10 km oder mehr
keine Wolken unter 1500 m und keine Kumulonimbus oder Gewitterwolken
Zeitweise
vom 23 um 00 UTC bis 23 um 06 UTC
Wind 3 kt aus Nordwest

TAF: LFSB 222300Z 2300/2324 01010KT CAVOK TEMPO 2300/2306 31003KT

Wetterbeobachtungen und Prognosen von mehr als 4000 Flughäfen (METAR und TAF Bericht).

Die verfügbaren Stationen werden durch gelbe und rote Markierungen auf der Karte dargestellt.

Führen Sie die Maus auf sie, um den Namen der Station zu sehen.

Darauf klicken, um die Beobachtung von Wetterbeobachtungen und Prognosen zu sehen.

Um die Karte zu ändern : klicken Sie auf den grünen Tasten mit einem schwarzen Kreuz Zum Vergrößern, auf den grünen Button mit einem Gedankenstrich zu verkleinern, oder auf die grünen Pfeile für benachbarte Karten.


METAR-TAF: